Time;durP1;ratioP1;P1;durP2;ratioP2;P2;SDS_P1;SDS_P2;PMS_P1;PMS_P2;Temp;Humidity;BMP_temperature;BMP_pressure;BME280_temperature;BME280_humidity;BME280_pressure;Samples;Min_cycle;Max_cycle;Signal;HPM_P1;HPM_P2
2024/02/03 00:00:57;;;;;;;48.97;19.58;;;;;;;0.74;100.00;98329.72;5092767;28;20183;-79
2024/02/03 00:03:23;;;;;;;45.55;20.83;;;;;;;0.83;100.00;98346.25;5075732;28;20034;-79
2024/02/03 00:05:48;;;;;;;54.30;21.00;;;;;;;0.72;100.00;98328.84;5084199;28;20403;-79
2024/02/03 00:08:14;;;;;;;45.88;21.20;;;;;;;0.73;100.00;98322.69;5056922;28;20065;-80
2024/02/03 00:10:40;;;;;;;41.65;19.40;;;;;;;0.82;100.00;98333.13;5061040;28;20042;-79
2024/02/03 00:13:06;;;;;;;43.40;19.77;;;;;;;0.88;100.00;98354.13;5067312;28;20472;-80
2024/02/03 00:15:31;;;;;;;45.10;20.25;;;;;;;0.75;100.00;98363.03;5075454;28;20081;-78
2024/02/03 00:17:57;;;;;;;46.67;20.25;;;;;;;0.60;100.00;98350.03;5075558;28;20028;-79
2024/02/03 00:20:23;;;;;;;51.05;23.13;;;;;;;0.58;100.00;98370.22;5064136;28;20048;-80
2024/02/03 00:22:51;;;;;;;48.25;21.75;;;;;;;0.48;100.00;98354.53;5055539;28;20030;-80
2024/02/03 00:25:20;;;;;;;58.28;23.02;;;;;;;0.58;100.00;98365.84;5055613;28;20065;-80
2024/02/03 00:27:47;;;;;;;66.50;27.33;;;;;;;0.42;100.00;98359.84;5069633;28;20020;-80
2024/02/03 00:30:13;;;;;;;58.50;24.98;;;;;;;0.36;100.00;98365.16;5065755;28;20052;-80
2024/02/03 00:32:39;;;;;;;51.22;19.40;;;;;;;0.14;100.00;98325.91;5060480;28;20031;-80
2024/02/03 00:35:05;;;;;;;47.95;19.02;;;;;;;0.23;100.00;98357.38;5058960;28;20027;-80
2024/02/03 00:37:31;;;;;;;42.60;17.13;;;;;;;0.12;100.00;98352.22;5067462;28;20020;-79
2024/02/03 00:39:58;;;;;;;31.38;14.43;;;;;;;-0.01;100.00;98334.78;5075545;28;20035;-80
2024/02/03 00:42:24;;;;;;;38.92;14.98;;;;;;;-0.11;100.00;98322.59;5057994;28;20052;-78
2024/02/03 00:44:50;;;;;;;39.63;15.70;;;;;;;0.08;100.00;98355.75;5060684;28;20031;-78
2024/02/03 00:47:16;;;;;;;39.08;17.08;;;;;;;0.00;100.00;98340.03;5063652;28;20020;-80
2024/02/03 00:49:44;;;;;;;35.33;15.82;;;;;;;-0.11;100.00;98319.97;5065976;28;20036;-80
2024/02/03 00:52:10;;;;;;;39.65;16.30;;;;;;;0.08;100.00;98339.09;5058034;28;20449;-81
2024/02/03 00:54:35;;;;;;;34.42;16.08;;;;;;;-0.12;100.00;98315.56;5063092;28;20108;-79
2024/02/03 00:57:01;;;;;;;38.30;16.38;;;;;;;0.06;100.00;98347.00;5070466;28;20020;-79
2024/02/03 00:59:26;;;;;;;47.70;19.83;;;;;;;-0.11;100.00;98314.69;5056141;28;20029;-80
2024/02/03 01:01:52;;;;;;;39.05;17.42;;;;;;;-0.06;100.00;98331.28;5060348;28;20020;-79
2024/02/03 01:04:18;;;;;;;47.50;17.90;;;;;;;-0.10;100.00;98338.38;5056903;28;20537;-79
2024/02/03 01:06:44;;;;;;;40.75;17.88;;;;;;;-0.10;100.00;98332.22;5059613;28;20031;-79
2024/02/03 01:09:10;;;;;;;46.83;18.95;;;;;;;-0.27;100.00;98305.19;5055215;28;20028;-79
2024/02/03 01:11:36;;;;;;;41.50;18.02;;;;;;;-0.07;100.00;98337.47;5063207;28;20052;-79
2024/02/03 01:14:01;;;;;;;43.05;17.92;;;;;;;-0.11;100.00;98330.47;5054120;28;20064;-79
2024/02/03 01:16:27;;;;;;;39.15;16.42;;;;;;;-0.19;100.00;98327.03;5059676;28;20036;-80
2024/02/03 01:18:53;;;;;;;46.88;20.30;;;;;;;-0.34;100.00;98300.88;5065694;28;20043;-78
2024/02/03 01:21:21;;;;;;;42.20;20.70;;;;;;;-0.20;100.00;98318.28;5065904;28;20033;-79
2024/02/03 01:23:47;;;;;;;47.47;19.25;;;;;;;-0.34;100.00;98287.72;5063636;28;20436;-80
2024/02/03 01:26:13;;;;;;;46.28;20.10;;;;;;;-0.33;100.00;98290.31;5068572;28;20044;-80
2024/02/03 01:28:38;;;;;;;43.40;19.38;;;;;;;-0.40;100.00;98287.78;5070908;28;20038;-80
2024/02/03 01:31:04;;;;;;;43.22;18.08;;;;;;;-0.24;100.00;98319.16;5081981;28;20114;-79
2024/02/03 01:33:31;;;;;;;43.38;18.63;;;;;;;-0.31;100.00;98301.72;5064491;28;20115;-79
2024/02/03 01:35:57;;;;;;;42.47;19.05;;;;;;;-0.15;100.00;98334.88;5080616;28;20506;-79
2024/02/03 01:38:23;;;;;;;54.60;22.27;;;;;;;-0.28;100.00;98329.72;5070398;28;20056;-78
2024/02/03 01:40:48;;;;;;;57.22;22.73;;;;;;;-0.40;100.00;98301.75;5056508;28;20036;-78
2024/02/03 01:43:14;;;;;;;50.08;21.42;;;;;;;-0.49;100.00;98293.09;5082224;28;20047;-79
2024/02/03 01:45:40;;;;;;;65.68;25.98;;;;;;;-0.58;100.00;98287.00;5056617;28;20032;-79
2024/02/03 01:48:07;;;;;;;67.60;25.08;;;;;;;-0.47;100.00;98309.72;5070070;28;20105;-79
2024/02/03 01:50:33;;;;;;;53.42;22.60;;;;;;;-0.53;100.00;98275.59;5077260;28;20107;-79
2024/02/03 01:53:00;;;;;;;48.70;21.33;;;;;;;-0.35;100.00;98304.38;5084999;28;20074;-79
2024/02/03 01:55:26;;;;;;;39.75;18.35;;;;;;;-0.44;100.00;98292.16;5065011;28;20034;-78
2024/02/03 01:57:53;;;;;;;47.53;19.30;;;;;;;-0.51;100.00;98271.19;5079016;28;20028;-79
2024/02/03 02:00:19;;;;;;;51.92;22.23;;;;;;;-0.52;100.00;98274.72;5062291;28;20546;-78
2024/02/03 02:02:45;;;;;;;54.60;19.88;;;;;;;-0.59;100.00;98282.63;5062168;28;20036;-79
2024/02/03 02:05:11;;;;;;;48.40;19.08;;;;;;;-0.88;100.00;98232.03;5059601;28;20028;-79
2024/02/03 02:07:44;;;;;;;46.95;19.38;;;;;;;-0.79;100.00;98239.84;5076562;28;20073;-79
2024/02/03 02:10:12;;;;;;;49.65;19.88;;;;;;;-0.80;100.00;98237.25;5075945;28;20020;-78
2024/02/03 02:12:38;;;;;;;46.35;18.77;;;;;;;-0.73;100.00;98245.06;5084118;28;20035;-78
2024/02/03 02:15:05;;;;;;;48.67;20.95;;;;;;;-0.70;100.00;98273.06;5056036;28;20349;-80
2024/02/03 02:17:31;;;;;;;42.08;16.58;;;;;;;-1.06;100.00;98226.91;5058604;28;20024;-79
2024/02/03 02:20:05;;;;;;;46.60;17.98;;;;;;;-1.01;100.00;98237.34;5068600;28;20142;-80
2024/02/03 02:22:32;;;;;;;59.35;23.45;;;;;;;-0.90;100.00;98267.94;5081888;28;20594;-78
2024/02/03 02:24:58;;;;;;;41.17;17.83;;;;;;;-1.05;100.00;98249.66;5058931;28;20040;-78
2024/02/03 02:27:24;;;;;;;38.88;16.13;;;;;;;-1.15;100.00;98229.56;5060938;28;20033;-78
2024/02/03 02:29:50;;;;;;;39.90;15.88;;;;;;;-0.94;100.00;98260.94;5055891;28;20140;-79
2024/02/03 02:32:15;;;;;;;40.50;17.02;;;;;;;-1.08;100.00;98252.28;5050849;28;20041;-79
2024/02/03 02:34:42;;;;;;;38.65;17.00;;;;;;;-1.08;100.00;98254.91;5078753;28;20557;-79
2024/02/03 02:37:08;;;;;;;38.35;16.30;;;;;;;-1.08;100.00;98260.16;5065955;28;20047;-79
2024/02/03 02:39:33;;;;;;;37.38;15.90;;;;;;;-1.06;100.00;98254.88;5075409;28;20024;-79
2024/02/03 02:41:59;;;;;;;37.25;16.10;;;;;;;-1.22;100.00;98227.84;5075036;28;20023;-82
2024/02/03 02:44:25;;;;;;;35.45;15.75;;;;;;;-1.04;100.00;98250.50;5059308;28;20119;-81
2024/02/03 02:46:51;;;;;;;42.47;17.13;;;;;;;-0.98;100.00;98250.47;5069715;28;20020;-82
2024/02/03 02:49:17;;;;;;;43.20;16.52;;;;;;;-1.05;100.00;98239.16;5067518;28;20019;-81
2024/02/03 02:51:42;;;;;;;42.15;18.05;;;;;;;-0.96;100.00;98265.34;5063810;28;20038;-81
2024/02/03 02:54:08;;;;;;;39.38;15.65;;;;;;;-0.97;100.00;98241.72;5057977;28;20066;-82
2024/02/03 02:56:34;;;;;;;43.25;18.88;;;;;;;-0.87;100.00;98252.16;5065607;28;20036;-82
2024/02/03 02:59:00;;;;;;;46.05;19.33;;;;;;;-0.82;100.00;98250.38;5061529;28;20055;-81
2024/02/03 03:01:25;;;;;;;53.08;22.13;;;;;;;-0.80;100.00;98243.34;5078423;28;20024;-81
2024/02/03 03:03:53;;;;;;;56.13;23.33;;;;;;;-0.78;100.00;98241.59;5053189;28;20052;-81
2024/02/03 03:06:19;;;;;;;56.85;23.52;;;;;;;-0.83;100.00;98238.13;5054090;28;20033;-82
2024/02/03 03:08:45;;;;;;;66.55;24.48;;;;;;;-0.71;100.00;98248.53;5061658;28;20078;-81
2024/02/03 03:11:12;;;;;;;51.67;19.90;;;;;;;-0.78;100.00;98238.97;5053672;28;20016;-82
2024/02/03 03:13:39;;;;;;;50.05;21.45;;;;;;;-0.81;100.00;98243.38;5054435;28;20020;-82
2024/02/03 03:16:07;;;;;;;61.25;24.70;;;;;;;-0.85;100.00;98247.78;5073609;28;20093;-81
2024/02/03 03:18:32;;;;;;;65.80;25.23;;;;;;;-0.98;100.00;98248.72;5073235;28;20407;-81
2024/02/03 03:20:59;;;;;;;54.33;21.50;;;;;;;-1.14;100.00;98242.66;5083355;28;20036;-80
2024/02/03 03:23:24;;;;;;;52.97;23.55;;;;;;;-1.05;100.00;98249.66;5072118;28;20023;-81
2024/02/03 03:25:50;;;;;;;56.85;24.83;;;;;;;-1.21;100.00;98240.09;5075703;28;20052;-81
2024/02/03 03:28:16;;;;;;;79.20;26.10;;;;;;;-1.23;100.00;98231.38;5070137;28;20538;-83
2024/02/03 03:30:41;;;;;;;60.60;26.70;;;;;;;-1.24;100.00;98240.09;5069013;28;20375;-82
2024/02/03 03:33:07;;;;;;;59.65;24.85;;;;;;;-1.14;100.00;98233.94;5073209;28;20035;-82
2024/02/03 03:35:33;;;;;;;61.63;28.00;;;;;;;-1.21;100.00;98240.09;5088933;28;20513;-81
2024/02/03 03:37:59;;;;;;;55.70;26.95;;;;;;;-1.12;100.00;98250.53;5074562;28;20028;-81
2024/02/03 03:40:24;;;;;;;60.38;24.60;;;;;;;-1.14;100.00;98244.44;5088403;28;20147;-80
2024/02/03 03:42:50;;;;;;;49.75;23.42;;;;;;;-1.15;100.00;98247.94;5093560;28;20081;-82
2024/02/03 03:45:19;;;;;;;58.85;24.17;;;;;;;-1.17;100.00;98252.34;5076220;28;20444;-81
2024/02/03 03:47:45;;;;;;;62.35;26.52;;;;;;;-1.21;100.00;98250.59;5084988;28;20050;-81
2024/02/03 03:50:10;;;;;;;59.30;24.40;;;;;;;-1.22;100.00;98244.47;5067416;28;20019;-80
2024/02/03 03:52:36;;;;;;;58.58;24.88;;;;;;;-1.40;100.00;98233.16;5076520;28;20024;-80
2024/02/03 03:55:02;;;;;;;54.40;20.55;;;;;;;-1.34;100.00;98236.66;5059793;28;20024;-81
2024/02/03 03:57:27;;;;;;;54.78;23.52;;;;;;;-1.36;100.00;98237.53;5085263;28;20130;-81
2024/02/03 03:59:53;;;;;;;52.90;21.80;;;;;;;-1.42;100.00;98221.81;5075910;28;20032;-82
2024/02/03 04:02:19;;;;;;;52.47;23.35;;;;;;;-1.32;100.00;98240.13;5061155;28;20064;-81
2024/02/03 04:04:45;;;;;;;52.72;21.08;;;;;;;-1.38;100.00;98231.41;5067989;28;20032;-83
2024/02/03 04:07:11;;;;;;;76.97;27.50;;;;;;;-1.38;100.00;98223.53;5056591;28;20040;-80
2024/02/03 04:09:36;;;;;;;51.33;22.02;;;;;;;-1.45;100.00;98224.47;5062031;28;20027;-81
2024/02/03 04:12:02;;;;;;;51.95;21.08;;;;;;;-1.45;100.00;98227.09;5068143;28;20044;-81
2024/02/03 04:14:28;;;;;;;37.05;17.60;;;;;;;-1.50;100.00;98218.34;5068271;28;20035;-83
2024/02/03 04:16:53;;;;;;;36.75;16.48;;;;;;;-1.50;100.00;98223.59;5075699;28;20123;-81
2024/02/03 04:19:19;;;;;;;41.63;16.02;;;;;;;-1.46;100.00;98227.94;5067289;28;20035;-81
2024/02/03 04:21:44;;;;;;;35.22;15.85;;;;;;;-1.61;100.00;98218.41;5085857;28;20432;-80
2024/02/03 04:24:10;;;;;;;33.22;13.60;;;;;;;-1.64;100.00;98221.03;5066084;28;20385;-81
2024/02/03 04:26:36;;;;;;;31.10;13.30;;;;;;;-1.74;100.00;98214.94;5085850;28;20084;-80
2024/02/03 04:29:01;;;;;;;32.08;12.57;;;;;;;-1.71;100.00;98222.78;5063717;28;20025;-81
2024/02/03 04:31:27;;;;;;;34.75;15.25;;;;;;;-1.70;100.00;98223.66;5068226;28;20059;-80
2024/02/03 04:33:53;;;;;;;31.58;12.43;;;;;;;-1.70;100.00;98221.03;5075946;28;20032;-81
2024/02/03 04:36:18;;;;;;;38.67;14.38;;;;;;;-1.73;100.00;98216.69;5067379;28;20089;-80
2024/02/03 04:38:44;;;;;;;36.55;14.65;;;;;;;-1.65;100.00;98220.16;5075397;28;20106;-82
2024/02/03 04:41:25;;;;;;;46.78;17.13;;;;;;;-1.63;100.00;98230.63;5065686;28;20067;-82
2024/02/03 04:43:51;;;;;;;41.17;16.90;;;;;;;-1.73;100.00;98219.31;5063249;28;20085;-83
2024/02/03 04:46:17;;;;;;;46.25;19.88;;;;;;;-1.70;100.00;98221.03;5066143;28;20496;-82
2024/02/03 04:48:43;;;;;;;54.00;22.20;;;;;;;-1.63;100.00;98235.00;5056950;28;20020;-82
2024/02/03 04:51:09;;;;;;;50.65;23.02;;;;;;;-1.57;100.00;98232.38;5063951;28;20032;-82
2024/02/03 04:53:35;;;;;;;49.85;21.45;;;;;;;-1.67;100.00;98224.53;5061743;28;20025;-82
2024/02/03 04:56:00;;;;;;;50.97;22.70;;;;;;;-1.58;100.00;98234.13;5059865;28;20024;-81
2024/02/03 04:58:26;;;;;;;58.13;24.52;;;;;;;-1.71;100.00;98211.44;5055325;28;20497;-82
2024/02/03 05:00:51;;;;;;;63.95;24.48;;;;;;;-1.55;100.00;98230.59;5070425;28;20104;-81
2024/02/03 05:03:17;;;;;;;64.88;27.77;;;;;;;-1.60;100.00;98219.28;5075521;28;20119;-81
2024/02/03 05:05:43;;;;;;;56.53;24.08;;;;;;;-1.54;100.00;98235.88;5092566;28;20035;-81
2024/02/03 05:08:10;;;;;;;48.67;21.27;;;;;;;-1.60;100.00;98232.38;5066682;28;20130;-82
2024/02/03 05:10:36;;;;;;;50.92;22.75;;;;;;;-1.59;100.00;98239.34;5055222;28;20116;-81
2024/02/03 05:13:02;;;;;;;55.08;23.83;;;;;;;-1.61;100.00;98233.25;5069829;28;20051;-82
2024/02/03 05:15:27;;;;;;;49.83;21.25;;;;;;;-1.76;100.00;98213.19;5058120;28;20549;-82
2024/02/03 05:17:53;;;;;;;54.67;23.58;;;;;;;-1.68;100.00;98228.03;5068595;28;20024;-82
2024/02/03 05:20:18;;;;;;;49.42;21.13;;;;;;;-1.71;100.00;98233.28;5055399;28;20025;-83
2024/02/03 05:22:44;;;;;;;60.92;23.40;;;;;;;-1.78;100.00;98230.66;5079535;28;20031;-81
2024/02/03 05:25:11;;;;;;;62.70;22.67;;;;;;;-1.75;100.00;98235.91;5063213;28;20037;-81
2024/02/03 05:27:36;;;;;;;52.28;18.77;;;;;;;-1.96;100.00;98208.00;5088973;28;20032;-78
2024/02/03 05:30:02;;;;;;;57.45;20.80;;;;;;;-1.80;100.00;98228.06;5086973;28;20039;-77
2024/02/03 05:32:29;;;;;;;52.38;20.48;;;;;;;-1.77;100.00;98235.91;5064469;28;20081;-76
2024/02/03 05:34:55;;;;;;;59.17;21.77;;;;;;;-1.88;100.00;98218.47;5055589;28;20454;-76
2024/02/03 05:37:20;;;;;;;46.60;20.90;;;;;;;-1.88;100.00;98208.88;5064519;28;20024;-76
2024/02/03 05:39:46;;;;;;;49.72;20.13;;;;;;;-1.83;100.00;98222.84;5060660;28;20020;-78
2024/02/03 05:42:12;;;;;;;55.75;23.73;;;;;;;-1.80;100.00;98222.81;5074255;28;20144;-76
2024/02/03 05:44:37;;;;;;;54.42;22.70;;;;;;;-1.70;100.00;98235.03;5073986;28;20088;-81
2024/02/03 05:47:03;;;;;;;58.05;23.48;;;;;;;-1.81;100.00;98207.06;5074097;28;20102;-76
2024/02/03 05:49:29;;;;;;;65.78;25.55;;;;;;;-1.70;100.00;98224.53;5065616;28;20036;-76
2024/02/03 05:51:54;;;;;;;60.30;25.58;;;;;;;-1.65;100.00;98212.28;5057136;28;20020;-77
2024/02/03 05:54:20;;;;;;;70.25;28.02;;;;;;;-1.67;100.00;98208.81;5073726;28;20089;-76
2024/02/03 05:56:46;;;;;;;71.43;28.92;;;;;;;-1.49;100.00;98226.22;5055532;28;20032;-76
2024/02/03 05:59:12;;;;;;;74.63;30.00;;;;;;;-1.53;100.00;98200.00;5053799;28;20024;-76
2024/02/03 06:01:37;;;;;;;79.10;28.15;;;;;;;-1.50;100.00;98208.72;5061906;28;20511;-77
2024/02/03 06:04:04;;;;;;;81.53;32.95;;;;;;;-1.43;100.00;98207.84;5082633;28;20092;-77
2024/02/03 06:06:32;;;;;;;78.10;33.50;;;;;;;-1.57;100.00;98203.53;5074218;28;20032;-76
2024/02/03 06:08:58;;;;;;;72.25;29.45;;;;;;;-1.43;100.00;98206.94;5082537;28;20562;-77
2024/02/03 06:11:23;;;;;;;62.67;28.25;;;;;;;-1.47;100.00;98205.22;5060590;28;20032;-76
2024/02/03 06:13:49;;;;;;;59.20;22.92;;;;;;;-1.45;100.00;98211.34;5064828;28;20036;-77
2024/02/03 06:16:14;;;;;;;52.88;20.92;;;;;;;-1.31;100.00;98213.03;5076170;28;20062;-81
2024/02/03 06:18:40;;;;;;;50.15;22.25;;;;;;;-1.32;100.00;98202.53;5066673;28;20031;-78
2024/02/03 06:21:05;;;;;;;53.20;19.15;;;;;;;-1.25;100.00;98206.88;5063652;28;20032;-77
2024/02/03 06:23:31;;;;;;;46.30;19.77;;;;;;;-1.15;100.00;98190.19;5072017;28;20027;-76
2024/02/03 06:25:57;;;;;;;55.58;23.83;;;;;;;-1.11;100.00;98198.03;5063759;28;20036;-77
2024/02/03 06:28:24;;;;;;;64.63;29.02;;;;;;;-0.98;100.00;98209.34;5053032;28;20032;-77
2024/02/03 06:30:49;;;;;;;127.90;56.47;;;;;;;-0.87;100.00;98223.28;5063972;28;20032;-77
2024/02/03 06:33:15;;;;;;;82.07;29.23;;;;;;;-0.89;100.00;98218.94;5060089;28;20365;-76
2024/02/03 06:35:41;;;;;;;88.63;29.35;;;;;;;-0.32;100.00;98226.38;5060508;28;20024;-77
2024/02/03 06:38:07;;;;;;;86.05;32.72;;;;;;;1.33;100.00;98229.72;5061389;28;20020;-77
2024/02/03 06:40:32;;;;;;;72.32;30.80;;;;;;;2.86;100.00;98221.72;5060652;28;20079;-78
2024/02/03 06:42:59;;;;;;;74.45;29.95;;;;;;;3.87;100.00;98178.84;5082683;28;20122;-76
2024/02/03 06:45:25;;;;;;;68.78;29.17;;;;;;;5.35;100.00;98189.66;5085036;28;20100;-82
2024/02/03 06:47:50;;;;;;;77.07;33.03;;;;;;;6.69;100.00;98175.38;5059803;28;20483;-83
2024/02/03 06:50:16;;;;;;;102.18;41.78;;;;;;;7.97;100.00;98180.97;5052837;28;20028;-83
2024/02/03 06:52:42;;;;;;;91.10;42.92;;;;;;;9.01;89.18;98153.34;5053499;28;20036;-83
2024/02/03 06:55:08;;;;;;;114.45;50.42;;;;;;;9.85;75.79;98143.00;5062938;28;20451;-83
2024/02/03 06:57:33;;;;;;;101.75;48.17;;;;;;;10.51;65.29;98137.91;5090082;28;20024;-81
2024/02/03 06:59:59;;;;;;;123.68;55.67;;;;;;;10.74;63.45;98145.56;5056421;28;20039;-83
2024/02/03 07:02:25;;;;;;;99.18;44.40;;;;;;;11.83;60.77;98137.69;5091598;28;20020;-82
2024/02/03 07:04:50;;;;;;;119.38;54.17;;;;;;;12.64;55.13;98127.53;5065259;28;20408;-85
2024/02/03 07:07:16;;;;;;;140.95;62.20;;;;;;;12.37;53.05;98116.63;5079438;28;20029;-85
2024/02/03 07:09:42;;;;;;;123.35;56.63;;;;;;;10.78;55.59;98125.72;5068369;28;20067;-85
2024/02/03 07:12:08;;;;;;;150.82;66.40;;;;;;;9.20;60.86;98123.03;5090339;28;20024;-83
2024/02/03 07:14:34;;;;;;;220.23;91.80;;;;;;;9.20;68.17;98132.84;5073423;28;20047;-83
2024/02/03 07:17:00;;;;;;;163.88;72.65;;;;;;;10.47;64.43;98144.34;5064068;28;20056;-83
2024/02/03 07:19:27;;;;;;;189.57;95.20;;;;;;;11.19;60.63;98132.41;5060533;28;20039;-83
2024/02/03 07:21:53;;;;;;;141.43;69.50;;;;;;;12.00;57.42;98111.75;5069089;28;20028;-77
2024/02/03 07:24:18;;;;;;;138.52;67.20;;;;;;;12.62;55.48;98091.84;5074812;28;20074;-83
2024/02/03 07:26:44;;;;;;;85.93;45.53;;;;;;;12.71;53.45;98089.47;5068854;28;20057;-82
2024/02/03 07:29:10;;;;;;;64.55;33.92;;;;;;;12.95;56.35;98100.53;5079880;28;20035;-86
2024/02/03 07:31:35;;;;;;;168.80;87.95;;;;;;;13.73;53.42;98085.63;5053255;28;20031;-83
2024/02/03 07:34:01;;;;;;;56.70;29.70;;;;;;;13.96;51.96;98072.41;5069699;28;20511;-79
2024/02/03 07:36:27;;;;;;;59.40;28.55;;;;;;;13.95;50.59;98069.78;5060436;28;20107;-79
2024/02/03 07:38:53;;;;;;;58.47;29.52;;;;;;;14.47;49.44;98070.69;5061020;28;20036;-82
2024/02/03 07:41:19;;;;;;;71.05;34.10;;;;;;;14.28;50.34;98069.31;5063525;28;20032;-81
2024/02/03 07:43:45;;;;;;;66.97;36.20;;;;;;;14.02;50.73;98066.59;5089598;28;20050;-78
2024/02/03 07:46:11;;;;;;;49.20;24.70;;;;;;;13.73;51.44;98080.25;5063973;28;20055;-83
2024/02/03 07:48:37;;;;;;;31.92;17.35;;;;;;;12.94;53.39;98077.31;5064063;28;20085;-83
2024/02/03 07:51:03;;;;;;;17.55;9.30;;;;;;;12.69;54.96;98090.53;5055518;28;20488;-84
2024/02/03 07:53:29;;;;;;;12.60;6.32;;;;;;;12.27;55.90;98089.50;5060877;28;20043;-83
2024/02/03 07:55:54;;;;;;;10.98;6.25;;;;;;;11.25;57.50;98094.56;5060672;28;20036;-83
2024/02/03 07:58:20;;;;;;;13.13;6.40;;;;;;;10.42;62.18;98091.09;5070832;28;20489;-83
2024/02/03 08:00:45;;;;;;;17.88;8.38;;;;;;;9.93;66.96;98107.91;5074819;28;20107;-83
2024/02/03 08:03:12;;;;;;;26.83;8.38;;;;;;;9.89;73.64;98111.66;5066426;28;20403;-83
2024/02/03 08:05:37;;;;;;;13.00;7.30;;;;;;;9.94;72.17;98104.25;5068497;28;20143;-83
2024/02/03 08:08:04;;;;;;;16.23;7.47;;;;;;;9.82;72.74;98111.97;5067688;28;20025;-84
2024/02/03 08:10:30;;;;;;;20.17;8.23;;;;;;;9.60;76.40;98107.75;5064005;28;20035;-81
2024/02/03 08:12:55;;;;;;;17.60;9.02;;;;;;;10.15;69.54;98108.59;5064064;28;20024;-81
2024/02/03 08:15:21;;;;;;;29.52;12.35;;;;;;;10.43;67.91;98086.63;5065914;28;20487;-84
2024/02/03 08:17:46;;;;;;;32.53;12.48;;;;;;;10.60;69.34;98099.97;5075945;28;20024;-83
2024/02/03 08:20:12;;;;;;;26.30;11.57;;;;;;;10.39;69.44;98095.75;5066674;28;20059;-83
2024/02/03 08:22:38;;;;;;;26.00;12.30;;;;;;;11.05;70.26;98108.16;5059393;28;20028;-81
2024/02/03 08:25:06;;;;;;;30.52;14.60;;;;;;;11.23;62.41;98069.66;5066986;28;20024;-82
2024/02/03 08:27:32;;;;;;;29.50;14.18;;;;;;;11.57;61.46;98092.72;5066829;28;20115;-81
2024/02/03 08:29:57;;;;;;;36.15;19.45;;;;;;;11.48;61.96;98081.66;5066041;28;20449;-82
2024/02/03 08:32:24;;;;;;;31.88;16.88;;;;;;;11.42;63.10;98091.78;5065164;28;20118;-81
2024/02/03 08:34:50;;;;;;;145.00;66.80;;;;;;;11.46;63.22;98091.63;5066943;28;20489;-84
2024/02/03 08:37:17;;;;;;;19.38;9.73;;;;;;;11.12;59.65;98082.81;5077633;28;20021;-83
2024/02/03 08:39:42;;;;;;;15.95;8.27;;;;;;;10.74;59.55;98076.00;5074869;28;20485;-83
2024/02/03 08:42:08;;;;;;;17.38;7.68;;;;;;;10.49;59.92;98075.59;5061025;28;20031;-82
2024/02/03 08:44:33;;;;;;;47.92;23.00;;;;;;;10.37;63.46;98094.97;5069386;28;20513;-84
2024/02/03 08:46:59;;;;;;;57.80;26.55;;;;;;;10.19;64.11;98094.97;5072220;28;20380;-84
2024/02/03 08:49:27;;;;;;;13.23;6.15;;;;;;;10.06;66.70;98099.16;5082773;28;20036;-83
2024/02/03 08:51:53;;;;;;;17.77;7.90;;;;;;;10.30;62.85;98081.88;5074397;28;20029;-85
2024/02/03 08:54:18;;;;;;;25.88;12.05;;;;;;;10.39;62.83;98075.22;5064248;28;20465;-81
2024/02/03 08:56:44;;;;;;;16.85;8.27;;;;;;;10.34;62.44;98087.94;5080671;28;20108;-83
2024/02/03 08:59:10;;;;;;;30.23;14.82;;;;;;;10.37;64.26;98086.94;5071321;28;20020;-84
2024/02/03 09:01:35;;;;;;;13.40;4.45;;;;;;;10.41;62.66;98085.81;5065607;28;20035;-82
2024/02/03 09:04:01;;;;;;;14.43;6.82;;;;;;;10.39;62.99;98075.22;5063249;28;20036;-84
2024/02/03 09:06:26;;;;;;;9.32;5.00;;;;;;;10.51;61.18;98073.69;5065525;28;20074;-83
2024/02/03 09:08:52;;;;;;;7.07;3.13;;;;;;;10.39;60.30;98079.69;5054198;28;20024;-84
2024/02/03 09:11:18;;;;;;;8.98;5.03;;;;;;;10.43;60.92;98070.56;5072802;28;20028;-81
2024/02/03 09:13:44;;;;;;;12.02;4.82;;;;;;;10.38;61.24;98076.16;5080145;28;20028;-84
2024/02/03 09:16:10;;;;;;;21.45;11.02;;;;;;;10.39;62.10;98074.34;5072745;28;20506;-83
2024/02/03 09:18:35;;;;;;;24.45;9.90;;;;;;;10.13;63.97;98073.91;5070318;28;20031;-81
2024/02/03 09:21:01;;;;;;;8.25;3.88;;;;;;;9.97;62.99;98056.88;5060773;28;20025;-81
2024/02/03 09:23:26;;;;;;;8.38;3.67;;;;;;;9.96;63.56;98068.53;5057951;28;20055;-82
2024/02/03 09:25:54;;;;;;;11.98;5.05;;;;;;;10.01;65.61;98082.50;5061745;28;20048;-81
2024/02/03 09:28:19;;;;;;;10.65;4.85;;;;;;;10.05;65.69;98080.56;5065263;28;20032;-80
2024/02/03 09:30:45;;;;;;;9.07;3.88;;;;;;;10.01;64.99;98077.16;5059342;28;20027;-82
2024/02/03 09:33:10;;;;;;;11.02;4.85;;;;;;;9.63;67.64;98078.22;5065968;28;20113;-82
2024/02/03 09:35:36;;;;;;;6.13;3.70;;;;;;;9.45;68.98;98068.44;5055607;28;20150;-81
2024/02/03 09:38:01;;;;;;;12.13;3.97;;;;;;;9.50;69.30;98063.78;5064892;28;20023;-82
2024/02/03 09:40:27;;;;;;;7.93;3.50;;;;;;;9.36;71.73;98069.78;5067782;28;20025;-82
2024/02/03 09:42:53;;;;;;;7.13;3.60;;;;;;;9.42;71.34;98053.44;5064803;28;20071;-81
2024/02/03 09:45:22;;;;;;;8.65;3.83;;;;;;;9.81;68.69;98042.59;5065113;28;20028;-83
2024/02/03 09:47:48;;;;;;;12.88;4.28;;;;;;;9.98;67.63;98037.25;5065408;28;20052;-81
2024/02/03 09:50:14;;;;;;;9.55;4.40;;;;;;;9.98;67.10;98045.25;5073238;28;20028;-83
2024/02/03 09:52:40;;;;;;;9.43;4.93;;;;;;;10.03;65.94;98023.66;5071640;28;20047;-83
2024/02/03 09:55:06;;;;;;;9.27;5.00;;;;;;;10.03;65.93;98023.66;5067358;28;20028;-83
2024/02/03 09:57:32;;;;;;;7.78;3.72;;;;;;;10.24;65.34;98036.75;5056286;28;20024;-82
2024/02/03 09:59:59;;;;;;;6.65;3.60;;;;;;;10.44;63.69;98034.84;5057536;28;20390;-82
2024/02/03 10:02:24;;;;;;;10.02;4.25;;;;;;;10.40;63.71;98026.13;5058065;28;20032;-83
2024/02/03 10:04:50;;;;;;;16.17;3.20;;;;;;;10.15;64.82;98018.53;5069492;28;20164;-83
2024/02/03 10:07:19;;;;;;;7.70;3.42;;;;;;;10.14;66.33;98006.13;5085379;28;20032;-83
2024/02/03 10:09:46;;;;;;;7.72;4.32;;;;;;;10.20;66.71;98021.84;5063306;28;20035;-83
2024/02/03 10:12:18;;;;;;;13.25;4.97;;;;;;;10.21;65.70;98002.16;5079061;28;20081;-83
2024/02/03 10:14:44;;;;;;;14.77;5.57;;;;;;;10.23;67.67;97997.63;5072141;28;20488;-80
2024/02/03 10:17:10;;;;;;;15.73;8.07;;;;;;;10.34;69.09;98003.25;5064882;28;20039;-81
2024/02/03 10:19:35;;;;;;;16.35;7.85;;;;;;;10.33;67.35;97995.31;5072550;28;20450;-81
2024/02/03 10:22:02;;;;;;;19.27;8.85;;;;;;;10.34;69.24;97989.88;5069730;28;20077;-82
2024/02/03 10:24:28;;;;;;;11.20;5.38;;;;;;;10.30;68.50;97993.66;5068657;28;20028;-82
2024/02/03 10:27:04;;;;;;;10.38;4.82;;;;;;;10.07;69.97;97985.97;5080270;28;20545;-81
2024/02/03 10:29:30;;;;;;;11.15;4.47;;;;;;;9.99;72.09;97988.19;5056993;28;20513;-81
2024/02/03 10:31:56;;;;;;;7.00;4.05;;;;;;;10.00;72.37;97981.03;5063796;28;20360;-81
2024/02/03 10:34:22;;;;;;;12.23;4.45;;;;;;;9.93;73.64;97979.63;5066628;28;20032;-81
2024/02/03 10:36:48;;;;;;;10.68;5.20;;;;;;;10.02;72.77;97972.00;5054419;28;20036;-82
2024/02/03 10:39:14;;;;;;;12.85;5.25;;;;;;;10.03;72.21;97976.38;5090038;28;20080;-80
2024/02/03 10:41:40;;;;;;;10.82;4.75;;;;;;;9.99;73.63;97974.84;5072818;28;20043;-81
2024/02/03 10:44:10;;;;;;;9.60;5.03;;;;;;;9.91;74.12;97969.03;5089115;28;20024;-82
2024/02/03 10:46:40;;;;;;;12.45;4.63;;;;;;;9.70;76.39;97954.13;5064748;28;20032;-82
2024/02/03 10:49:15;;;;;;;7.03;3.55;;;;;;;9.70;77.50;97965.66;5055844;28;20028;-82
2024/02/03 10:51:43;;;;;;;6.40;3.28;;;;;;;9.47;79.21;97941.09;5070924;28;20104;-82
2024/02/03 10:54:17;;;;;;;11.43;3.90;;;;;;;9.60;78.54;97952.84;5088540;28;20032;-82
2024/02/03 10:56:46;;;;;;;7.50;3.60;;;;;;;9.74;77.51;97963.69;5072533;28;20033;-82
2024/02/03 10:59:21;;;;;;;6.10;3.00;;;;;;;9.55;78.14;97962.91;5078082;28;20024;-82
2024/02/03 11:01:46;;;;;;;8.32;3.42;;;;;;;9.54;79.87;97954.03;5076184;28;20032;-82
2024/02/03 11:04:16;;;;;;;6.93;3.22;;;;;;;9.61;78.06;97944.78;5056413;28;20181;-82
2024/02/03 11:06:45;;;;;;;6.10;3.28;;;;;;;9.73;76.13;97957.50;5081262;28;20516;-81
2024/02/03 11:09:13;;;;;;;6.57;3.65;;;;;;;9.80;76.38;97950.03;5064211;28;20377;-80
2024/02/03 11:11:41;;;;;;;6.13;3.30;;;;;;;10.00;74.60;97938.25;5068425;28;20503;-82